Segamat, Malaysia
Current Conditions -  °F | °C
As of 9:00 PM on Wednesday 26 Nov 2014 (Local Time) from WMKM Reporting Station
Broken Clouds Broken Clouds  
Wind Chill: 81°   Ceiling: 27000
Heat Index: 87°   Visibility: 6mi
Dew Point: 77°   Wind: 3mph
Humidity: 89%   Direction: 340°NNW
Pressure: 29.8"   Gusts: NA
Location:  2.52°N, 102.81°E
Report Text: WMKM 261300Z 34003KT 9999 FEW028 SCT140 BKN270 27/25 Q1009
Loading
Personal Weather Stations






























Interactive Weather Map New forecast layout! Learn more

10-Day Weather Forecast

Advertisements
Track Severe Weather on mobile